sensor_id;sensor_type;location;lat;lon;timestamp;temperature;humidity
22202;DHT22;11266;51.522;6.302;2023-07-02T00:00:01;18.30;99.90
22202;DHT22;11266;51.522;6.302;2023-07-02T00:00:47;18.20;99.90
22202;DHT22;11266;51.522;6.302;2023-07-02T00:01:32;18.20;99.90
22202;DHT22;11266;51.522;6.302;2023-07-02T00:02:18;18.20;99.90
22202;DHT22;11266;51.522;6.302;2023-07-02T00:03:04;18.20;99.90
22202;DHT22;11266;51.522;6.302;2023-07-02T00:03:49;18.20;99.90
22202;DHT22;11266;51.522;6.302;2023-07-02T00:04:35;18.30;99.90
22202;DHT22;11266;51.522;6.302;2023-07-02T00:05:21;18.20;99.90
22202;DHT22;11266;51.522;6.302;2023-07-02T00:06:06;18.20;99.90
22202;DHT22;11266;51.522;6.302;2023-07-02T00:06:52;18.30;99.90
22202;DHT22;11266;51.522;6.302;2023-07-02T00:07:37;18.40;99.90
22202;DHT22;11266;51.522;6.302;2023-07-02T00:08:23;18.30;99.90
22202;DHT22;11266;51.522;6.302;2023-07-02T00:09:10;18.30;99.90
22202;DHT22;11266;51.522;6.302;2023-07-02T00:09:56;18.30;99.90
22202;DHT22;11266;51.522;6.302;2023-07-02T00:10:41;18.30;99.90
22202;DHT22;11266;51.522;6.302;2023-07-02T00:11:27;18.40;99.90
22202;DHT22;11266;51.522;6.302;2023-07-02T00:12:13;18.40;99.90
22202;DHT22;11266;51.522;6.302;2023-07-02T00:12:58;18.40;99.90
22202;DHT22;11266;51.522;6.302;2023-07-02T00:13:44;18.40;99.90
22202;DHT22;11266;51.522;6.302;2023-07-02T00:14:29;18.40;99.90
22202;DHT22;11266;51.522;6.302;2023-07-02T00:15:15;18.40;99.90
22202;DHT22;11266;51.522;6.302;2023-07-02T00:16:01;18.30;99.90
22202;DHT22;11266;51.522;6.302;2023-07-02T00:16:48;18.40;99.90
22202;DHT22;11266;51.522;6.302;2023-07-02T00:17:33;18.40;99.90
22202;DHT22;11266;51.522;6.302;2023-07-02T00:18:19;18.40;99.90
22202;DHT22;11266;51.522;6.302;2023-07-02T00:19:05;18.40;99.90
22202;DHT22;11266;51.522;6.302;2023-07-02T00:19:50;18.40;99.90
22202;DHT22;11266;51.522;6.302;2023-07-02T00:20:37;18.40;99.90
22202;DHT22;11266;51.522;6.302;2023-07-02T00:21:23;18.40;99.90
22202;DHT22;11266;51.522;6.302;2023-07-02T00:22:13;18.30;99.90
22202;DHT22;11266;51.522;6.302;2023-07-02T00:23:01;18.20;99.90
22202;DHT22;11266;51.522;6.302;2023-07-02T00:23:47;18.20;99.90
22202;DHT22;11266;51.522;6.302;2023-07-02T00:24:33;18.20;99.90
22202;DHT22;11266;51.522;6.302;2023-07-02T00:25:18;18.20;99.90
22202;DHT22;11266;51.522;6.302;2023-07-02T00:26:04;18.20;99.90
22202;DHT22;11266;51.522;6.302;2023-07-02T00:26:49;18.20;99.90
22202;DHT22;11266;51.522;6.302;2023-07-02T00:27:35;18.10;99.90
22202;DHT22;11266;51.522;6.302;2023-07-02T00:28:20;18.00;99.90
22202;DHT22;11266;51.522;6.302;2023-07-02T00:29:06;18.00;99.90
22202;DHT22;11266;51.522;6.302;2023-07-02T00:29:53;18.10;99.90
22202;DHT22;11266;51.522;6.302;2023-07-02T00:30:38;18.10;99.90
22202;DHT22;11266;51.522;6.302;2023-07-02T00:31:24;18.10;99.90
22202;DHT22;11266;51.522;6.302;2023-07-02T00:32:09;18.00;99.90
22202;DHT22;11266;51.522;6.302;2023-07-02T00:32:55;18.00;99.90
22202;DHT22;11266;51.522;6.302;2023-07-02T00:33:41;18.00;99.90
22202;DHT22;11266;51.522;6.302;2023-07-02T00:34:26;18.00;99.90
22202;DHT22;11266;51.522;6.302;2023-07-02T00:35:12;18.10;99.90
22202;DHT22;11266;51.522;6.302;2023-07-02T00:35:57;18.10;99.90
22202;DHT22;11266;51.522;6.302;2023-07-02T00:36:46;18.10;99.90
22202;DHT22;11266;51.522;6.302;2023-07-02T00:37:32;18.10;99.90
22202;DHT22;11266;51.522;6.302;2023-07-02T00:38:17;18.10;99.90
22202;DHT22;11266;51.522;6.302;2023-07-02T00:39:03;18.10;99.90
22202;DHT22;11266;51.522;6.302;2023-07-02T00:39:49;18.10;99.90
22202;DHT22;11266;51.522;6.302;2023-07-02T00:40:34;18.20;99.90
22202;DHT22;11266;51.522;6.302;2023-07-02T00:41:20;18.10;99.90
22202;DHT22;11266;51.522;6.302;2023-07-02T00:42:05;18.10;99.90
22202;DHT22;11266;51.522;6.302;2023-07-02T00:42:51;18.10;99.90
22202;DHT22;11266;51.522;6.302;2023-07-02T00:43:37;18.10;99.90
22202;DHT22;11266;51.522;6.302;2023-07-02T00:44:28;18.10;99.90
22202;DHT22;11266;51.522;6.302;2023-07-02T00:45:14;18.10;99.90
22202;DHT22;11266;51.522;6.302;2023-07-02T00:45:59;18.10;99.90
22202;DHT22;11266;51.522;6.302;2023-07-02T00:46:45;18.10;99.90
22202;DHT22;11266;51.522;6.302;2023-07-02T00:47:33;18.00;99.90
22202;DHT22;11266;51.522;6.302;2023-07-02T00:48:19;18.10;99.90
22202;DHT22;11266;51.522;6.302;2023-07-02T00:49:05;18.10;99.90
22202;DHT22;11266;51.522;6.302;2023-07-02T00:49:51;18.00;99.90
22202;DHT22;11266;51.522;6.302;2023-07-02T00:50:38;18.00;99.90
22202;DHT22;11266;51.522;6.302;2023-07-02T00:51:26;18.00;99.90
22202;DHT22;11266;51.522;6.302;2023-07-02T00:52:12;17.90;99.90
22202;DHT22;11266;51.522;6.302;2023-07-02T00:52:58;17.90;99.90
22202;DHT22;11266;51.522;6.302;2023-07-02T00:53:48;17.80;99.90
22202;DHT22;11266;51.522;6.302;2023-07-02T00:54:34;17.90;99.90
22202;DHT22;11266;51.522;6.302;2023-07-02T00:55:21;17.90;99.90
22202;DHT22;11266;51.522;6.302;2023-07-02T00:56:06;17.90;99.90
22202;DHT22;11266;51.522;6.302;2023-07-02T00:56:52;17.90;99.90
22202;DHT22;11266;51.522;6.302;2023-07-02T00:57:38;17.90;99.90
22202;DHT22;11266;51.522;6.302;2023-07-02T00:58:25;17.90;99.90
22202;DHT22;11266;51.522;6.302;2023-07-02T00:59:11;17.90;99.90
22202;DHT22;11266;51.522;6.302;2023-07-02T00:59:58;18.00;99.90
22202;DHT22;11266;51.522;6.302;2023-07-02T01:00:45;17.90;99.90
22202;DHT22;11266;51.522;6.302;2023-07-02T01:01:31;17.90;99.90
22202;DHT22;11266;51.522;6.302;2023-07-02T01:02:18;17.90;99.90
22202;DHT22;11266;51.522;6.302;2023-07-02T01:03:04;17.90;99.90
22202;DHT22;11266;51.522;6.302;2023-07-02T01:03:54;17.80;99.90
22202;DHT22;11266;51.522;6.302;2023-07-02T01:04:40;17.90;99.90
22202;DHT22;11266;51.522;6.302;2023-07-02T01:05:28;17.90;99.90
22202;DHT22;11266;51.522;6.302;2023-07-02T01:06:43;17.80;99.90
22202;DHT22;11266;51.522;6.302;2023-07-02T01:07:28;17.80;99.90
22202;DHT22;11266;51.522;6.302;2023-07-02T01:08:14;17.80;99.90
22202;DHT22;11266;51.522;6.302;2023-07-02T01:09:01;17.80;99.90
22202;DHT22;11266;51.522;6.302;2023-07-02T01:09:48;17.80;99.90
22202;DHT22;11266;51.522;6.302;2023-07-02T01:10:33;17.80;99.90
22202;DHT22;11266;51.522;6.302;2023-07-02T01:11:23;17.80;99.90
22202;DHT22;11266;51.522;6.302;2023-07-02T01:12:10;17.80;99.90
22202;DHT22;11266;51.522;6.302;2023-07-02T01:12:59;17.80;99.90
22202;DHT22;11266;51.522;6.302;2023-07-02T01:13:45;18.00;99.90
22202;DHT22;11266;51.522;6.302;2023-07-02T01:14:51;18.00;99.90
22202;DHT22;11266;51.522;6.302;2023-07-02T01:15:38;17.90;99.90
22202;DHT22;11266;51.522;6.302;2023-07-02T01:16:24;18.00;99.90
22202;DHT22;11266;51.522;6.302;2023-07-02T01:17:10;18.00;99.90
22202;DHT22;11266;51.522;6.302;2023-07-02T01:17:56;18.00;99.90
22202;DHT22;11266;51.522;6.302;2023-07-02T01:18:43;18.00;99.90
22202;DHT22;11266;51.522;6.302;2023-07-02T01:20:37;18.00;99.90
22202;DHT22;11266;51.522;6.302;2023-07-02T01:21:24;18.00;99.90
22202;DHT22;11266;51.522;6.302;2023-07-02T01:22:11;17.90;99.90
22202;DHT22;11266;51.522;6.302;2023-07-02T01:22:58;18.00;99.90
22202;DHT22;11266;51.522;6.302;2023-07-02T01:23:48;18.10;99.90
22202;DHT22;11266;51.522;6.302;2023-07-02T01:24:33;18.10;99.90
22202;DHT22;11266;51.522;6.302;2023-07-02T01:25:19;18.00;99.90
22202;DHT22;11266;51.522;6.302;2023-07-02T01:26:09;18.00;99.90
22202;DHT22;11266;51.522;6.302;2023-07-02T01:26:55;18.00;99.90
22202;DHT22;11266;51.522;6.302;2023-07-02T01:27:41;18.00;99.90
22202;DHT22;11266;51.522;6.302;2023-07-02T01:28:34;18.00;99.90
22202;DHT22;11266;51.522;6.302;2023-07-02T01:29:20;17.90;99.90
22202;DHT22;11266;51.522;6.302;2023-07-02T01:30:07;18.00;99.90
22202;DHT22;11266;51.522;6.302;2023-07-02T01:30:52;18.10;99.90
22202;DHT22;11266;51.522;6.302;2023-07-02T01:31:38;18.10;99.90
22202;DHT22;11266;51.522;6.302;2023-07-02T01:32:24;18.10;99.90
22202;DHT22;11266;51.522;6.302;2023-07-02T01:33:09;18.10;99.90
22202;DHT22;11266;51.522;6.302;2023-07-02T01:33:55;18.10;99.90
22202;DHT22;11266;51.522;6.302;2023-07-02T01:34:40;18.10;99.90
22202;DHT22;11266;51.522;6.302;2023-07-02T01:35:26;18.10;99.90
22202;DHT22;11266;51.522;6.302;2023-07-02T01:36:11;18.00;99.90
22202;DHT22;11266;51.522;6.302;2023-07-02T01:36:57;18.00;99.90
22202;DHT22;11266;51.522;6.302;2023-07-02T01:37:43;17.90;99.90
22202;DHT22;11266;51.522;6.302;2023-07-02T01:38:28;18.00;99.90
22202;DHT22;11266;51.522;6.302;2023-07-02T01:39:14;18.00;99.90
22202;DHT22;11266;51.522;6.302;2023-07-02T01:40:01;17.90;99.90
22202;DHT22;11266;51.522;6.302;2023-07-02T01:40:46;17.90;99.90
22202;DHT22;11266;51.522;6.302;2023-07-02T01:42:22;17.90;99.90
22202;DHT22;11266;51.522;6.302;2023-07-02T01:42:43;18.00;99.90
22202;DHT22;11266;51.522;6.302;2023-07-02T01:43:28;18.00;99.90
22202;DHT22;11266;51.522;6.302;2023-07-02T01:44:14;18.00;99.90
22202;DHT22;11266;51.522;6.302;2023-07-02T01:44:59;18.00;99.90
22202;DHT22;11266;51.522;6.302;2023-07-02T01:45:45;18.10;99.90
22202;DHT22;11266;51.522;6.302;2023-07-02T01:46:31;18.00;99.90
22202;DHT22;11266;51.522;6.302;2023-07-02T01:47:16;17.90;99.90
22202;DHT22;11266;51.522;6.302;2023-07-02T01:48:03;17.90;99.90
22202;DHT22;11266;51.522;6.302;2023-07-02T01:48:48;17.90;99.90
22202;DHT22;11266;51.522;6.302;2023-07-02T01:49:34;17.90;99.90
22202;DHT22;11266;51.522;6.302;2023-07-02T01:50:21;17.80;99.90
22202;DHT22;11266;51.522;6.302;2023-07-02T01:51:06;17.90;99.90
22202;DHT22;11266;51.522;6.302;2023-07-02T01:51:53;17.80;99.90
22202;DHT22;11266;51.522;6.302;2023-07-02T01:52:39;17.80;99.90
22202;DHT22;11266;51.522;6.302;2023-07-02T01:53:24;17.80;99.90
22202;DHT22;11266;51.522;6.302;2023-07-02T01:54:10;17.80;99.90
22202;DHT22;11266;51.522;6.302;2023-07-02T01:54:55;17.80;99.90
22202;DHT22;11266;51.522;6.302;2023-07-02T01:55:41;17.70;99.90
22202;DHT22;11266;51.522;6.302;2023-07-02T01:56:26;17.80;99.90
22202;DHT22;11266;51.522;6.302;2023-07-02T01:57:12;17.90;99.90
22202;DHT22;11266;51.522;6.302;2023-07-02T01:57:58;17.80;99.90
22202;DHT22;11266;51.522;6.302;2023-07-02T01:58:44;17.80;99.90
22202;DHT22;11266;51.522;6.302;2023-07-02T01:59:30;17.90;99.90
22202;DHT22;11266;51.522;6.302;2023-07-02T02:00:15;17.80;99.90
22202;DHT22;11266;51.522;6.302;2023-07-02T02:01:01;17.80;99.90
22202;DHT22;11266;51.522;6.302;2023-07-02T02:01:47;17.90;99.90
22202;DHT22;11266;51.522;6.302;2023-07-02T02:02:32;17.90;99.90
22202;DHT22;11266;51.522;6.302;2023-07-02T02:03:18;17.90;99.90
22202;DHT22;11266;51.522;6.302;2023-07-02T02:04:04;17.90;99.90
22202;DHT22;11266;51.522;6.302;2023-07-02T02:04:49;17.90;99.90
22202;DHT22;11266;51.522;6.302;2023-07-02T02:05:35;17.90;99.90
22202;DHT22;11266;51.522;6.302;2023-07-02T02:06:20;17.90;99.90
22202;DHT22;11266;51.522;6.302;2023-07-02T02:07:06;17.90;99.90
22202;DHT22;11266;51.522;6.302;2023-07-02T02:07:52;18.00;99.90
22202;DHT22;11266;51.522;6.302;2023-07-02T02:08:37;17.90;99.90
22202;DHT22;11266;51.522;6.302;2023-07-02T02:09:23;18.00;99.90
22202;DHT22;11266;51.522;6.302;2023-07-02T02:10:09;17.90;99.90
22202;DHT22;11266;51.522;6.302;2023-07-02T02:10:55;17.90;99.90
22202;DHT22;11266;51.522;6.302;2023-07-02T02:11:43;17.80;99.90
22202;DHT22;11266;51.522;6.302;2023-07-02T02:12:29;18.00;99.90
22202;DHT22;11266;51.522;6.302;2023-07-02T03:12:22;17.30;99.90
22202;DHT22;11266;51.522;6.302;2023-07-02T03:13:08;17.40;99.90
22202;DHT22;11266;51.522;6.302;2023-07-02T03:13:53;17.40;99.90
22202;DHT22;11266;51.522;6.302;2023-07-02T03:14:39;17.30;99.90
22202;DHT22;11266;51.522;6.302;2023-07-02T03:15:25;17.30;99.90
22202;DHT22;11266;51.522;6.302;2023-07-02T03:16:10;17.30;99.90
22202;DHT22;11266;51.522;6.302;2023-07-02T03:16:56;17.30;99.90
22202;DHT22;11266;51.522;6.302;2023-07-02T03:17:41;17.30;99.90
22202;DHT22;11266;51.522;6.302;2023-07-02T03:18:27;17.40;99.90
22202;DHT22;11266;51.522;6.302;2023-07-02T03:19:13;17.50;99.90
22202;DHT22;11266;51.522;6.302;2023-07-02T03:20:01;17.50;99.90
22202;DHT22;11266;51.522;6.302;2023-07-02T03:20:49;17.50;99.90
22202;DHT22;11266;51.522;6.302;2023-07-02T03:21:34;17.50;99.90
22202;DHT22;11266;51.522;6.302;2023-07-02T03:22:20;17.40;99.90
22202;DHT22;11266;51.522;6.302;2023-07-02T03:23:06;17.40;99.90
22202;DHT22;11266;51.522;6.302;2023-07-02T03:23:51;17.50;99.90
22202;DHT22;11266;51.522;6.302;2023-07-02T03:24:37;17.50;99.90
22202;DHT22;11266;51.522;6.302;2023-07-02T03:25:22;17.50;99.90
22202;DHT22;11266;51.522;6.302;2023-07-02T03:26:08;17.60;99.90
22202;DHT22;11266;51.522;6.302;2023-07-02T03:26:53;17.60;99.90
22202;DHT22;11266;51.522;6.302;2023-07-02T03:27:39;17.60;99.90
22202;DHT22;11266;51.522;6.302;2023-07-02T03:28:25;17.50;99.90
22202;DHT22;11266;51.522;6.302;2023-07-02T03:29:11;17.60;99.90
22202;DHT22;11266;51.522;6.302;2023-07-02T03:29:56;17.60;99.90
22202;DHT22;11266;51.522;6.302;2023-07-02T03:30:42;17.60;99.90
22202;DHT22;11266;51.522;6.302;2023-07-02T03:31:27;17.60;99.90
22202;DHT22;11266;51.522;6.302;2023-07-02T03:32:13;17.60;99.90
22202;DHT22;11266;51.522;6.302;2023-07-02T03:32:59;17.50;99.90
22202;DHT22;11266;51.522;6.302;2023-07-02T03:33:44;17.60;99.90
22202;DHT22;11266;51.522;6.302;2023-07-02T03:34:30;17.60;99.90
22202;DHT22;11266;51.522;6.302;2023-07-02T03:35:15;17.50;99.90
22202;DHT22;11266;51.522;6.302;2023-07-02T03:36:01;17.50;99.90
22202;DHT22;11266;51.522;6.302;2023-07-02T03:36:47;17.40;99.90
22202;DHT22;11266;51.522;6.302;2023-07-02T03:37:32;17.40;99.90
22202;DHT22;11266;51.522;6.302;2023-07-02T03:38:18;17.30;99.90
22202;DHT22;11266;51.522;6.302;2023-07-02T03:39:04;17.30;99.90
22202;DHT22;11266;51.522;6.302;2023-07-02T03:39:50;17.30;99.90
22202;DHT22;11266;51.522;6.302;2023-07-02T03:40:36;17.40;99.90
22202;DHT22;11266;51.522;6.302;2023-07-02T03:41:21;17.50;99.90
22202;DHT22;11266;51.522;6.302;2023-07-02T03:42:07;17.50;99.90
22202;DHT22;11266;51.522;6.302;2023-07-02T03:42:52;17.50;99.90
22202;DHT22;11266;51.522;6.302;2023-07-02T03:43:38;17.40;99.90
22202;DHT22;11266;51.522;6.302;2023-07-02T03:44:24;17.40;99.90
22202;DHT22;11266;51.522;6.302;2023-07-02T03:45:09;17.40;99.90
22202;DHT22;11266;51.522;6.302;2023-07-02T03:45:57;17.40;99.90
22202;DHT22;11266;51.522;6.302;2023-07-02T03:46:43;17.40;99.90
22202;DHT22;11266;51.522;6.302;2023-07-02T03:47:28;17.40;99.90
22202;DHT22;11266;51.522;6.302;2023-07-02T03:48:14;17.30;99.90
22202;DHT22;11266;51.522;6.302;2023-07-02T03:49:00;17.30;99.90
22202;DHT22;11266;51.522;6.302;2023-07-02T03:49:45;17.30;99.90
22202;DHT22;11266;51.522;6.302;2023-07-02T03:50:31;17.40;99.90
22202;DHT22;11266;51.522;6.302;2023-07-02T03:51:16;17.40;99.90
22202;DHT22;11266;51.522;6.302;2023-07-02T03:52:02;17.40;99.90
22202;DHT22;11266;51.522;6.302;2023-07-02T03:52:48;17.50;99.90
22202;DHT22;11266;51.522;6.302;2023-07-02T03:53:33;17.40;99.90
22202;DHT22;11266;51.522;6.302;2023-07-02T03:54:19;17.40;99.90
22202;DHT22;11266;51.522;6.302;2023-07-02T03:55:05;17.50;99.90
22202;DHT22;11266;51.522;6.302;2023-07-02T03:55:51;17.40;99.90
22202;DHT22;11266;51.522;6.302;2023-07-02T03:56:36;17.30;99.90
22202;DHT22;11266;51.522;6.302;2023-07-02T03:57:22;17.20;99.90
22202;DHT22;11266;51.522;6.302;2023-07-02T03:58:07;17.30;99.90
22202;DHT22;11266;51.522;6.302;2023-07-02T03:58:53;17.30;99.90
22202;DHT22;11266;51.522;6.302;2023-07-02T03:59:38;17.40;99.90
22202;DHT22;11266;51.522;6.302;2023-07-02T04:00:24;17.40;99.90
22202;DHT22;11266;51.522;6.302;2023-07-02T04:01:09;17.30;99.90
22202;DHT22;11266;51.522;6.302;2023-07-02T04:01:55;17.20;99.90
22202;DHT22;11266;51.522;6.302;2023-07-02T04:02:41;17.20;99.90
22202;DHT22;11266;51.522;6.302;2023-07-02T04:03:26;17.30;99.90
22202;DHT22;11266;51.522;6.302;2023-07-02T04:04:12;17.30;99.90
22202;DHT22;11266;51.522;6.302;2023-07-02T04:04:57;17.20;99.90
22202;DHT22;11266;51.522;6.302;2023-07-02T04:05:44;17.30;99.90
22202;DHT22;11266;51.522;6.302;2023-07-02T04:06:29;17.20;99.90
22202;DHT22;11266;51.522;6.302;2023-07-02T04:07:15;17.20;99.90
22202;DHT22;11266;51.522;6.302;2023-07-02T04:08:01;17.30;99.90
22202;DHT22;11266;51.522;6.302;2023-07-02T04:08:46;17.30;99.90
22202;DHT22;11266;51.522;6.302;2023-07-02T04:09:32;17.30;99.90
22202;DHT22;11266;51.522;6.302;2023-07-02T04:10:21;17.40;99.90
22202;DHT22;11266;51.522;6.302;2023-07-02T04:11:07;17.40;99.90
22202;DHT22;11266;51.522;6.302;2023-07-02T04:11:53;17.40;99.90
22202;DHT22;11266;51.522;6.302;2023-07-02T04:12:39;17.30;99.90
22202;DHT22;11266;51.522;6.302;2023-07-02T04:13:24;17.30;99.90
22202;DHT22;11266;51.522;6.302;2023-07-02T04:14:10;17.20;99.90
22202;DHT22;11266;51.522;6.302;2023-07-02T04:14:55;17.20;99.90
22202;DHT22;11266;51.522;6.302;2023-07-02T04:15:41;17.20;99.90
22202;DHT22;11266;51.522;6.302;2023-07-02T04:16:27;17.20;99.90
22202;DHT22;11266;51.522;6.302;2023-07-02T04:17:13;17.30;99.90
22202;DHT22;11266;51.522;6.302;2023-07-02T04:17:58;17.40;99.90
22202;DHT22;11266;51.522;6.302;2023-07-02T04:18:44;17.40;99.90
22202;DHT22;11266;51.522;6.302;2023-07-02T04:19:29;17.50;99.90
22202;DHT22;11266;51.522;6.302;2023-07-02T04:20:15;17.40;99.90
22202;DHT22;11266;51.522;6.302;2023-07-02T04:21:02;17.40;99.90
22202;DHT22;11266;51.522;6.302;2023-07-02T04:21:47;17.30;99.90
22202;DHT22;11266;51.522;6.302;2023-07-02T04:22:33;17.40;99.90
22202;DHT22;11266;51.522;6.302;2023-07-02T04:23:19;17.30;99.90
22202;DHT22;11266;51.522;6.302;2023-07-02T04:24:04;17.30;99.90
22202;DHT22;11266;51.522;6.302;2023-07-02T04:24:50;17.50;99.90
22202;DHT22;11266;51.522;6.302;2023-07-02T04:25:36;17.50;99.90
22202;DHT22;11266;51.522;6.302;2023-07-02T04:26:21;17.50;99.90
22202;DHT22;11266;51.522;6.302;2023-07-02T04:27:07;17.40;99.90
22202;DHT22;11266;51.522;6.302;2023-07-02T04:27:52;17.40;99.90
22202;DHT22;11266;51.522;6.302;2023-07-02T04:28:42;17.40;99.90
22202;DHT22;11266;51.522;6.302;2023-07-02T04:29:28;17.40;99.90
22202;DHT22;11266;51.522;6.302;2023-07-02T04:30:14;17.40;99.90
22202;DHT22;11266;51.522;6.302;2023-07-02T04:30:59;17.30;99.90
22202;DHT22;11266;51.522;6.302;2023-07-02T04:31:45;17.40;99.90
22202;DHT22;11266;51.522;6.302;2023-07-02T04:32:30;17.30;99.90
22202;DHT22;11266;51.522;6.302;2023-07-02T04:33:16;17.40;99.90
22202;DHT22;11266;51.522;6.302;2023-07-02T04:34:02;17.30;99.90
22202;DHT22;11266;51.522;6.302;2023-07-02T04:34:47;17.40;99.90
22202;DHT22;11266;51.522;6.302;2023-07-02T04:35:33;17.40;99.90
22202;DHT22;11266;51.522;6.302;2023-07-02T04:36:19;17.50;99.90
22202;DHT22;11266;51.522;6.302;2023-07-02T04:37:05;17.50;99.90
22202;DHT22;11266;51.522;6.302;2023-07-02T05:19:06;18.60;99.90
22202;DHT22;11266;51.522;6.302;2023-07-02T05:19:51;18.60;99.90
22202;DHT22;11266;51.522;6.302;2023-07-02T05:20:37;18.70;99.90
22202;DHT22;11266;51.522;6.302;2023-07-02T05:21:23;18.80;99.90
22202;DHT22;11266;51.522;6.302;2023-07-02T05:22:09;18.80;99.90
22202;DHT22;11266;51.522;6.302;2023-07-02T05:22:55;18.90;99.90
22202;DHT22;11266;51.522;6.302;2023-07-02T05:23:41;18.90;99.90
22202;DHT22;11266;51.522;6.302;2023-07-02T05:24:26;19.00;99.90
22202;DHT22;11266;51.522;6.302;2023-07-02T05:25:12;19.20;99.90
22202;DHT22;11266;51.522;6.302;2023-07-02T05:25:57;19.20;99.90
22202;DHT22;11266;51.522;6.302;2023-07-02T05:26:43;19.20;99.90
22202;DHT22;11266;51.522;6.302;2023-07-02T05:27:28;19.30;99.90
22202;DHT22;11266;51.522;6.302;2023-07-02T05:28:14;19.30;99.90
22202;DHT22;11266;51.522;6.302;2023-07-02T05:29:00;19.30;99.90
22202;DHT22;11266;51.522;6.302;2023-07-02T05:29:45;19.40;99.90
22202;DHT22;11266;51.522;6.302;2023-07-02T05:30:31;19.30;99.90
22202;DHT22;11266;51.522;6.302;2023-07-02T05:31:17;19.30;99.90
22202;DHT22;11266;51.522;6.302;2023-07-02T05:32:03;19.30;99.90
22202;DHT22;11266;51.522;6.302;2023-07-02T05:32:48;19.30;99.90
22202;DHT22;11266;51.522;6.302;2023-07-02T05:33:34;19.40;99.90
22202;DHT22;11266;51.522;6.302;2023-07-02T05:34:19;19.40;99.90
22202;DHT22;11266;51.522;6.302;2023-07-02T05:35:05;19.50;99.90
22202;DHT22;11266;51.522;6.302;2023-07-02T05:35:51;19.50;99.90
22202;DHT22;11266;51.522;6.302;2023-07-02T05:36:37;19.50;99.90
22202;DHT22;11266;51.522;6.302;2023-07-02T05:37:23;19.60;99.90
22202;DHT22;11266;51.522;6.302;2023-07-02T05:38:08;19.60;99.90
22202;DHT22;11266;51.522;6.302;2023-07-02T05:38:54;19.70;99.90
22202;DHT22;11266;51.522;6.302;2023-07-02T05:39:39;19.80;99.90
22202;DHT22;11266;51.522;6.302;2023-07-02T05:40:25;19.80;99.90
22202;DHT22;11266;51.522;6.302;2023-07-02T05:41:10;19.90;99.90
22202;DHT22;11266;51.522;6.302;2023-07-02T05:41:56;20.00;99.90
22202;DHT22;11266;51.522;6.302;2023-07-02T05:42:42;20.00;99.90
22202;DHT22;11266;51.522;6.302;2023-07-02T05:43:28;20.10;99.90
22202;DHT22;11266;51.522;6.302;2023-07-02T05:44:13;20.10;99.90
22202;DHT22;11266;51.522;6.302;2023-07-02T05:44:59;20.20;99.90
22202;DHT22;11266;51.522;6.302;2023-07-02T05:45:44;20.20;99.90
22202;DHT22;11266;51.522;6.302;2023-07-02T05:46:30;20.30;99.90
22202;DHT22;11266;51.522;6.302;2023-07-02T05:47:15;20.30;99.90
22202;DHT22;11266;51.522;6.302;2023-07-02T05:48:01;20.30;99.90
22202;DHT22;11266;51.522;6.302;2023-07-02T05:48:47;20.30;99.90
22202;DHT22;11266;51.522;6.302;2023-07-02T05:49:32;20.40;99.90
22202;DHT22;11266;51.522;6.302;2023-07-02T05:50:18;20.40;99.90
22202;DHT22;11266;51.522;6.302;2023-07-02T05:51:03;20.50;99.90
22202;DHT22;11266;51.522;6.302;2023-07-02T05:51:49;20.50;99.90
22202;DHT22;11266;51.522;6.302;2023-07-02T05:52:34;20.50;99.90
22202;DHT22;11266;51.522;6.302;2023-07-02T05:53:20;20.50;99.90
22202;DHT22;11266;51.522;6.302;2023-07-02T05:54:06;20.60;99.90
22202;DHT22;11266;51.522;6.302;2023-07-02T05:54:52;20.50;99.90
22202;DHT22;11266;51.522;6.302;2023-07-02T05:55:37;20.40;99.90
22202;DHT22;11266;51.522;6.302;2023-07-02T05:56:23;20.30;99.90
22202;DHT22;11266;51.522;6.302;2023-07-02T05:57:09;20.40;99.90
22202;DHT22;11266;51.522;6.302;2023-07-02T05:57:54;20.40;99.90
22202;DHT22;11266;51.522;6.302;2023-07-02T05:58:42;20.40;99.90
22202;DHT22;11266;51.522;6.302;2023-07-02T05:59:28;20.40;99.90
22202;DHT22;11266;51.522;6.302;2023-07-02T06:00:14;20.40;99.90
22202;DHT22;11266;51.522;6.302;2023-07-02T06:01:00;20.30;99.90
22202;DHT22;11266;51.522;6.302;2023-07-02T06:01:46;20.20;99.90
22202;DHT22;11266;51.522;6.302;2023-07-02T06:02:32;20.20;99.90
22202;DHT22;11266;51.522;6.302;2023-07-02T06:03:20;20.10;99.90
22202;DHT22;11266;51.522;6.302;2023-07-02T06:04:06;20.10;99.90
22202;DHT22;11266;51.522;6.302;2023-07-02T06:04:51;20.10;99.90
22202;DHT22;11266;51.522;6.302;2023-07-02T06:05:37;19.90;99.90
22202;DHT22;11266;51.522;6.302;2023-07-02T06:06:23;20.00;99.90
22202;DHT22;11266;51.522;6.302;2023-07-02T06:07:09;20.00;99.90
22202;DHT22;11266;51.522;6.302;2023-07-02T06:07:55;19.90;99.90
22202;DHT22;11266;51.522;6.302;2023-07-02T06:08:40;19.90;99.90
22202;DHT22;11266;51.522;6.302;2023-07-02T06:09:26;19.90;99.90
22202;DHT22;11266;51.522;6.302;2023-07-02T06:10:12;19.80;99.90
22202;DHT22;11266;51.522;6.302;2023-07-02T06:10:57;19.90;99.90
22202;DHT22;11266;51.522;6.302;2023-07-02T06:11:43;19.80;99.90
22202;DHT22;11266;51.522;6.302;2023-07-02T06:12:29;19.80;99.90
22202;DHT22;11266;51.522;6.302;2023-07-02T06:13:15;19.80;99.90
22202;DHT22;11266;51.522;6.302;2023-07-02T06:14:00;19.80;99.90
22202;DHT22;11266;51.522;6.302;2023-07-02T06:14:46;19.70;99.90
22202;DHT22;11266;51.522;6.302;2023-07-02T06:15:31;19.70;99.90
22202;DHT22;11266;51.522;6.302;2023-07-02T06:16:17;19.70;99.90
22202;DHT22;11266;51.522;6.302;2023-07-02T06:17:03;19.70;99.90
22202;DHT22;11266;51.522;6.302;2023-07-02T06:17:51;19.70;99.90
22202;DHT22;11266;51.522;6.302;2023-07-02T06:18:37;19.80;99.90
22202;DHT22;11266;51.522;6.302;2023-07-02T06:19:23;19.70;99.90
22202;DHT22;11266;51.522;6.302;2023-07-02T06:20:08;19.70;99.90
22202;DHT22;11266;51.522;6.302;2023-07-02T06:20:54;19.70;99.90
22202;DHT22;11266;51.522;6.302;2023-07-02T06:21:40;19.60;99.90
22202;DHT22;11266;51.522;6.302;2023-07-02T06:22:26;19.60;99.90
22202;DHT22;11266;51.522;6.302;2023-07-02T06:23:12;19.70;99.90
22202;DHT22;11266;51.522;6.302;2023-07-02T06:23:57;19.70;99.90
22202;DHT22;11266;51.522;6.302;2023-07-02T06:24:44;19.70;99.90
22202;DHT22;11266;51.522;6.302;2023-07-02T06:25:29;19.70;99.90
22202;DHT22;11266;51.522;6.302;2023-07-02T06:26:15;19.70;99.90
22202;DHT22;11266;51.522;6.302;2023-07-02T06:27:00;19.70;99.90
22202;DHT22;11266;51.522;6.302;2023-07-02T06:27:47;19.70;99.90
22202;DHT22;11266;51.522;6.302;2023-07-02T06:28:32;19.70;99.90
22202;DHT22;11266;51.522;6.302;2023-07-02T06:29:18;19.60;99.90
22202;DHT22;11266;51.522;6.302;2023-07-02T06:30:04;19.60;99.90
22202;DHT22;11266;51.522;6.302;2023-07-02T06:30:50;19.60;99.90
22202;DHT22;11266;51.522;6.302;2023-07-02T06:31:35;19.60;99.90
22202;DHT22;11266;51.522;6.302;2023-07-02T06:32:21;19.50;99.90